sensor_id;sensor_type;location;lat;lon;timestamp;P1;durP1;ratioP1;P2;durP2;ratioP2
11386;SDS011;5748;53.102;8.456;2024-03-08T00:02:14;10.07;;;9.07;;
11386;SDS011;5748;53.102;8.456;2024-03-08T00:04:41;9.60;;;8.70;;
11386;SDS011;5748;53.102;8.456;2024-03-08T00:07:10;10.67;;;9.63;;
11386;SDS011;5748;53.102;8.456;2024-03-08T00:09:38;9.43;;;8.57;;
11386;SDS011;5748;53.102;8.456;2024-03-08T00:12:05;10.20;;;9.20;;
11386;SDS011;5748;53.102;8.456;2024-03-08T00:14:33;9.50;;;8.60;;
11386;SDS011;5748;53.102;8.456;2024-03-08T00:17:00;9.70;;;8.80;;
11386;SDS011;5748;53.102;8.456;2024-03-08T00:19:29;9.80;;;8.80;;
11386;SDS011;5748;53.102;8.456;2024-03-08T00:21:56;9.07;;;8.17;;
11386;SDS011;5748;53.102;8.456;2024-03-08T00:24:23;9.23;;;8.40;;
11386;SDS011;5748;53.102;8.456;2024-03-08T00:26:50;9.57;;;8.67;;
11386;SDS011;5748;53.102;8.456;2024-03-08T00:29:18;9.17;;;8.37;;
11386;SDS011;5748;53.102;8.456;2024-03-08T00:31:47;10.30;;;9.40;;
11386;SDS011;5748;53.102;8.456;2024-03-08T00:34:14;10.00;;;9.00;;
11386;SDS011;5748;53.102;8.456;2024-03-08T00:36:42;8.67;;;7.87;;
11386;SDS011;5748;53.102;8.456;2024-03-08T00:39:10;9.60;;;8.63;;
11386;SDS011;5748;53.102;8.456;2024-03-08T00:41:40;9.03;;;8.13;;
11386;SDS011;5748;53.102;8.456;2024-03-08T00:44:09;9.30;;;8.40;;
11386;SDS011;5748;53.102;8.456;2024-03-08T00:46:36;9.20;;;8.30;;
11386;SDS011;5748;53.102;8.456;2024-03-08T00:49:03;9.03;;;8.23;;
11386;SDS011;5748;53.102;8.456;2024-03-08T00:51:31;8.87;;;8.07;;
11386;SDS011;5748;53.102;8.456;2024-03-08T00:54:00;9.40;;;8.50;;
11386;SDS011;5748;53.102;8.456;2024-03-08T00:56:27;8.60;;;7.80;;
11386;SDS011;5748;53.102;8.456;2024-03-08T00:58:54;9.20;;;8.40;;
11386;SDS011;5748;53.102;8.456;2024-03-08T01:01:21;8.93;;;8.13;;
11386;SDS011;5748;53.102;8.456;2024-03-08T01:03:49;8.63;;;7.77;;
11386;SDS011;5748;53.102;8.456;2024-03-08T01:06:17;8.70;;;7.90;;
11386;SDS011;5748;53.102;8.456;2024-03-08T01:08:44;9.43;;;8.53;;
11386;SDS011;5748;53.102;8.456;2024-03-08T01:11:13;9.17;;;8.37;;
11386;SDS011;5748;53.102;8.456;2024-03-08T01:13:40;9.30;;;8.40;;
11386;SDS011;5748;53.102;8.456;2024-03-08T01:16:07;9.40;;;8.50;;
11386;SDS011;5748;53.102;8.456;2024-03-08T01:18:35;8.63;;;7.90;;
11386;SDS011;5748;53.102;8.456;2024-03-08T01:21:02;8.73;;;7.93;;
11386;SDS011;5748;53.102;8.456;2024-03-08T01:23:30;8.43;;;7.63;;
11386;SDS011;5748;53.102;8.456;2024-03-08T01:25:57;9.37;;;8.50;;
11386;SDS011;5748;53.102;8.456;2024-03-08T01:28:25;8.47;;;7.67;;
11386;SDS011;5748;53.102;8.456;2024-03-08T01:30:52;8.87;;;7.97;;
11386;SDS011;5748;53.102;8.456;2024-03-08T01:33:21;8.50;;;7.70;;
11386;SDS011;5748;53.102;8.456;2024-03-08T01:35:50;8.40;;;7.70;;
11386;SDS011;5748;53.102;8.456;2024-03-08T01:38:17;8.30;;;7.60;;
11386;SDS011;5748;53.102;8.456;2024-03-08T01:40:46;8.97;;;8.17;;
11386;SDS011;5748;53.102;8.456;2024-03-08T01:43:17;8.57;;;7.77;;
11386;SDS011;5748;53.102;8.456;2024-03-08T01:45:46;8.33;;;7.53;;
11386;SDS011;5748;53.102;8.456;2024-03-08T01:48:14;8.70;;;7.90;;
11386;SDS011;5748;53.102;8.456;2024-03-08T01:50:42;8.80;;;8.00;;
11386;SDS011;5748;53.102;8.456;2024-03-08T01:53:10;8.80;;;8.00;;
11386;SDS011;5748;53.102;8.456;2024-03-08T01:55:38;9.03;;;8.13;;
11386;SDS011;5748;53.102;8.456;2024-03-08T01:58:05;8.77;;;7.87;;
11386;SDS011;5748;53.102;8.456;2024-03-08T02:00:33;8.30;;;7.50;;
11386;SDS011;5748;53.102;8.456;2024-03-08T02:03:03;8.60;;;7.80;;
11386;SDS011;5748;53.102;8.456;2024-03-08T02:05:30;8.30;;;7.60;;
11386;SDS011;5748;53.102;8.456;2024-03-08T02:07:58;8.57;;;7.77;;
11386;SDS011;5748;53.102;8.456;2024-03-08T02:10:25;8.60;;;7.80;;
11386;SDS011;5748;53.102;8.456;2024-03-08T02:12:52;8.53;;;7.73;;
11386;SDS011;5748;53.102;8.456;2024-03-08T02:15:19;8.30;;;7.60;;
11386;SDS011;5748;53.102;8.456;2024-03-08T02:17:47;8.67;;;7.87;;
11386;SDS011;5748;53.102;8.456;2024-03-08T02:20:15;9.07;;;8.27;;
11386;SDS011;5748;53.102;8.456;2024-03-08T02:22:46;8.47;;;7.67;;
11386;SDS011;5748;53.102;8.456;2024-03-08T02:25:13;9.20;;;8.30;;
11386;SDS011;5748;53.102;8.456;2024-03-08T02:27:40;9.13;;;8.30;;
11386;SDS011;5748;53.102;8.456;2024-03-08T02:30:08;9.57;;;8.67;;
11386;SDS011;5748;53.102;8.456;2024-03-08T02:32:37;9.33;;;8.43;;
11386;SDS011;5748;53.102;8.456;2024-03-08T02:35:04;9.73;;;8.83;;
11386;SDS011;5748;53.102;8.456;2024-03-08T02:37:32;9.53;;;8.63;;
11386;SDS011;5748;53.102;8.456;2024-03-08T02:40:00;9.33;;;8.43;;
11386;SDS011;5748;53.102;8.456;2024-03-08T02:42:27;9.47;;;8.53;;
11386;SDS011;5748;53.102;8.456;2024-03-08T02:44:54;9.80;;;8.90;;
11386;SDS011;5748;53.102;8.456;2024-03-08T02:47:21;9.27;;;8.40;;
11386;SDS011;5748;53.102;8.456;2024-03-08T02:49:48;9.60;;;8.70;;
11386;SDS011;5748;53.102;8.456;2024-03-08T02:52:17;8.87;;;8.07;;
11386;SDS011;5748;53.102;8.456;2024-03-08T02:54:46;8.70;;;7.97;;
11386;SDS011;5748;53.102;8.456;2024-03-08T02:57:16;9.03;;;8.23;;
11386;SDS011;5748;53.102;8.456;2024-03-08T02:59:43;9.20;;;8.30;;
11386;SDS011;5748;53.102;8.456;2024-03-08T03:02:10;9.00;;;8.20;;
11386;SDS011;5748;53.102;8.456;2024-03-08T03:04:39;8.53;;;7.83;;
11386;SDS011;5748;53.102;8.456;2024-03-08T03:07:06;9.57;;;8.67;;
11386;SDS011;5748;53.102;8.456;2024-03-08T03:09:33;9.03;;;8.23;;
11386;SDS011;5748;53.102;8.456;2024-03-08T03:12:00;8.73;;;7.93;;
11386;SDS011;5748;53.102;8.456;2024-03-08T03:14:28;8.93;;;8.03;;
11386;SDS011;5748;53.102;8.456;2024-03-08T03:16:55;8.97;;;8.17;;
11386;SDS011;5748;53.102;8.456;2024-03-08T03:19:22;8.40;;;7.60;;
11386;SDS011;5748;53.102;8.456;2024-03-08T03:21:50;8.63;;;7.83;;
11386;SDS011;5748;53.102;8.456;2024-03-08T03:24:17;8.83;;;7.93;;
11386;SDS011;5748;53.102;8.456;2024-03-08T03:26:46;9.00;;;8.20;;
11386;SDS011;5748;53.102;8.456;2024-03-08T03:29:14;8.70;;;7.90;;
11386;SDS011;5748;53.102;8.456;2024-03-08T03:31:43;8.47;;;7.77;;
11386;SDS011;5748;53.102;8.456;2024-03-08T03:34:11;9.07;;;8.27;;
11386;SDS011;5748;53.102;8.456;2024-03-08T03:36:38;9.00;;;8.20;;
11386;SDS011;5748;53.102;8.456;2024-03-08T03:39:07;9.40;;;8.57;;
11386;SDS011;5748;53.102;8.456;2024-03-08T03:41:38;9.07;;;8.20;;
11386;SDS011;5748;53.102;8.456;2024-03-08T03:44:05;8.93;;;8.13;;
11386;SDS011;5748;53.102;8.456;2024-03-08T03:46:32;9.63;;;8.73;;
11386;SDS011;5748;53.102;8.456;2024-03-08T03:49:02;10.10;;;9.20;;
11386;SDS011;5748;53.102;8.456;2024-03-08T03:51:29;9.53;;;8.73;;
11386;SDS011;5748;53.102;8.456;2024-03-08T03:53:56;9.50;;;8.60;;
11386;SDS011;5748;53.102;8.456;2024-03-08T03:56:25;9.10;;;8.30;;
11386;SDS011;5748;53.102;8.456;2024-03-08T03:58:52;9.40;;;8.53;;
11386;SDS011;5748;53.102;8.456;2024-03-08T04:01:19;8.73;;;7.93;;
11386;SDS011;5748;53.102;8.456;2024-03-08T04:03:46;9.63;;;8.73;;
11386;SDS011;5748;53.102;8.456;2024-03-08T04:06:15;9.20;;;8.30;;
11386;SDS011;5748;53.102;8.456;2024-03-08T04:08:42;8.90;;;8.10;;
11386;SDS011;5748;53.102;8.456;2024-03-08T04:11:09;8.87;;;8.07;;
11386;SDS011;5748;53.102;8.456;2024-03-08T04:13:36;8.53;;;7.83;;
11386;SDS011;5748;53.102;8.456;2024-03-08T04:16:03;9.80;;;8.83;;
11386;SDS011;5748;53.102;8.456;2024-03-08T04:18:33;8.43;;;7.73;;
11386;SDS011;5748;53.102;8.456;2024-03-08T04:21:01;9.10;;;8.30;;
11386;SDS011;5748;53.102;8.456;2024-03-08T04:23:29;9.10;;;8.30;;
11386;SDS011;5748;53.102;8.456;2024-03-08T04:25:56;9.33;;;8.43;;
11386;SDS011;5748;53.102;8.456;2024-03-08T04:28:23;8.30;;;7.53;;
11386;SDS011;5748;53.102;8.456;2024-03-08T04:30:51;9.23;;;8.37;;
11386;SDS011;5748;53.102;8.456;2024-03-08T04:33:18;9.40;;;8.57;;
11386;SDS011;5748;53.102;8.456;2024-03-08T04:35:46;8.67;;;7.87;;
11386;SDS011;5748;53.102;8.456;2024-03-08T04:38:13;9.63;;;8.73;;
11386;SDS011;5748;53.102;8.456;2024-03-08T04:40:42;9.30;;;8.40;;
11386;SDS011;5748;53.102;8.456;2024-03-08T04:43:09;9.20;;;8.40;;
11386;SDS011;5748;53.102;8.456;2024-03-08T04:45:37;9.30;;;8.50;;
11386;SDS011;5748;53.102;8.456;2024-03-08T04:48:04;9.80;;;8.80;;
11386;SDS011;5748;53.102;8.456;2024-03-08T04:50:33;8.50;;;7.70;;
11386;SDS011;5748;53.102;8.456;2024-03-08T04:53:00;9.47;;;8.57;;
11386;SDS011;5748;53.102;8.456;2024-03-08T04:55:28;9.17;;;8.37;;
11386;SDS011;5748;53.102;8.456;2024-03-08T04:57:56;9.43;;;8.57;;
11386;SDS011;5748;53.102;8.456;2024-03-08T05:00:23;9.57;;;8.67;;
11386;SDS011;5748;53.102;8.456;2024-03-08T05:02:50;10.00;;;9.10;;
11386;SDS011;5748;53.102;8.456;2024-03-08T05:05:18;9.80;;;8.90;;
11386;SDS011;5748;53.102;8.456;2024-03-08T05:07:45;10.23;;;9.33;;
11386;SDS011;5748;53.102;8.456;2024-03-08T05:10:13;9.47;;;8.57;;
11386;SDS011;5748;53.102;8.456;2024-03-08T05:12:42;8.97;;;8.17;;
11386;SDS011;5748;53.102;8.456;2024-03-08T05:15:10;10.00;;;9.13;;
11386;SDS011;5748;53.102;8.456;2024-03-08T05:17:38;9.37;;;8.47;;
11386;SDS011;5748;53.102;8.456;2024-03-08T05:20:05;10.37;;;9.37;;
11386;SDS011;5748;53.102;8.456;2024-03-08T05:22:37;10.00;;;9.07;;
11386;SDS011;5748;53.102;8.456;2024-03-08T05:25:05;9.83;;;8.93;;
11386;SDS011;5748;53.102;8.456;2024-03-08T05:27:34;10.20;;;9.20;;
11386;SDS011;5748;53.102;8.456;2024-03-08T05:30:01;10.07;;;9.17;;
11386;SDS011;5748;53.102;8.456;2024-03-08T05:32:30;9.83;;;8.93;;
11386;SDS011;5748;53.102;8.456;2024-03-08T05:34:57;9.33;;;8.53;;
11386;SDS011;5748;53.102;8.456;2024-03-08T05:37:24;10.10;;;9.20;;
11386;SDS011;5748;53.102;8.456;2024-03-08T05:39:51;10.50;;;9.50;;
11386;SDS011;5748;53.102;8.456;2024-03-08T05:42:19;11.27;;;10.23;;
11386;SDS011;5748;53.102;8.456;2024-03-08T05:44:46;10.47;;;9.40;;
11386;SDS011;5748;53.102;8.456;2024-03-08T05:47:14;10.37;;;9.37;;
11386;SDS011;5748;53.102;8.456;2024-03-08T05:49:44;11.00;;;10.00;;
11386;SDS011;5748;53.102;8.456;2024-03-08T05:52:11;9.50;;;8.60;;
11386;SDS011;5748;53.102;8.456;2024-03-08T05:54:39;10.53;;;9.63;;
11386;SDS011;5748;53.102;8.456;2024-03-08T05:57:07;10.60;;;9.60;;
11386;SDS011;5748;53.102;8.456;2024-03-08T05:59:34;10.10;;;9.20;;
11386;SDS011;5748;53.102;8.456;2024-03-08T06:02:01;10.73;;;9.73;;
11386;SDS011;5748;53.102;8.456;2024-03-08T06:04:29;11.03;;;10.03;;
11386;SDS011;5748;53.102;8.456;2024-03-08T06:06:58;10.47;;;9.53;;
11386;SDS011;5748;53.102;8.456;2024-03-08T06:09:25;10.10;;;9.20;;
11386;SDS011;5748;53.102;8.456;2024-03-08T06:11:52;10.07;;;9.07;;
11386;SDS011;5748;53.102;8.456;2024-03-08T06:14:19;10.97;;;9.97;;
11386;SDS011;5748;53.102;8.456;2024-03-08T06:16:46;10.57;;;9.57;;
11386;SDS011;5748;53.102;8.456;2024-03-08T06:19:15;11.13;;;10.03;;
11386;SDS011;5748;53.102;8.456;2024-03-08T06:21:42;9.83;;;8.93;;
11386;SDS011;5748;53.102;8.456;2024-03-08T06:24:10;11.60;;;10.50;;
11386;SDS011;5748;53.102;8.456;2024-03-08T06:26:37;11.73;;;10.63;;
11386;SDS011;5748;53.102;8.456;2024-03-08T06:29:04;11.63;;;10.47;;
11386;SDS011;5748;53.102;8.456;2024-03-08T06:31:32;11.23;;;10.20;;
11386;SDS011;5748;53.102;8.456;2024-03-08T06:33:59;10.73;;;9.73;;
11386;SDS011;5748;53.102;8.456;2024-03-08T06:36:26;11.33;;;10.23;;
11386;SDS011;5748;53.102;8.456;2024-03-08T06:38:53;11.60;;;10.50;;
11386;SDS011;5748;53.102;8.456;2024-03-08T06:41:24;11.23;;;10.23;;
11386;SDS011;5748;53.102;8.456;2024-03-08T06:43:52;11.97;;;10.80;;
11386;SDS011;5748;53.102;8.456;2024-03-08T06:46:22;11.87;;;10.77;;
11386;SDS011;5748;53.102;8.456;2024-03-08T06:48:49;11.00;;;10.00;;
11386;SDS011;5748;53.102;8.456;2024-03-08T06:51:17;11.13;;;10.13;;
11386;SDS011;5748;53.102;8.456;2024-03-08T06:53:44;11.13;;;10.13;;
11386;SDS011;5748;53.102;8.456;2024-03-08T06:56:11;10.87;;;9.87;;
11386;SDS011;5748;53.102;8.456;2024-03-08T06:58:41;11.20;;;10.20;;
11386;SDS011;5748;53.102;8.456;2024-03-08T07:01:08;11.13;;;10.03;;
11386;SDS011;5748;53.102;8.456;2024-03-08T07:03:39;11.50;;;10.40;;
11386;SDS011;5748;53.102;8.456;2024-03-08T07:06:09;11.83;;;10.73;;
11386;SDS011;5748;53.102;8.456;2024-03-08T07:08:36;11.53;;;10.43;;
11386;SDS011;5748;53.102;8.456;2024-03-08T07:11:03;12.63;;;11.50;;
11386;SDS011;5748;53.102;8.456;2024-03-08T07:13:30;11.60;;;10.50;;
11386;SDS011;5748;53.102;8.456;2024-03-08T07:15:59;12.10;;;11.00;;
11386;SDS011;5748;53.102;8.456;2024-03-08T07:18:26;11.10;;;10.13;;
11386;SDS011;5748;53.102;8.456;2024-03-08T07:20:54;11.87;;;10.77;;
11386;SDS011;5748;53.102;8.456;2024-03-08T07:23:22;10.80;;;9.77;;
11386;SDS011;5748;53.102;8.456;2024-03-08T07:26:06;12.60;;;11.50;;
11386;SDS011;5748;53.102;8.456;2024-03-08T07:28:34;11.80;;;10.70;;
11386;SDS011;5748;53.102;8.456;2024-03-08T07:31:03;11.73;;;10.63;;
11386;SDS011;5748;53.102;8.456;2024-03-08T07:33:46;11.40;;;10.33;;
11386;SDS011;5748;53.102;8.456;2024-03-08T07:36:15;10.97;;;9.97;;
11386;SDS011;5748;53.102;8.456;2024-03-08T07:38:42;11.73;;;10.63;;
11386;SDS011;5748;53.102;8.456;2024-03-08T07:41:11;10.93;;;9.93;;
11386;SDS011;5748;53.102;8.456;2024-03-08T07:43:39;11.90;;;10.80;;
11386;SDS011;5748;53.102;8.456;2024-03-08T07:46:07;11.63;;;10.53;;
11386;SDS011;5748;53.102;8.456;2024-03-08T07:48:35;12.43;;;11.23;;
11386;SDS011;5748;53.102;8.456;2024-03-08T07:51:03;12.77;;;11.60;;
11386;SDS011;5748;53.102;8.456;2024-03-08T07:53:30;11.93;;;10.83;;
11386;SDS011;5748;53.102;8.456;2024-03-08T07:55:57;11.80;;;10.60;;
11386;SDS011;5748;53.102;8.456;2024-03-08T07:58:25;11.67;;;10.57;;
11386;SDS011;5748;53.102;8.456;2024-03-08T08:00:53;11.03;;;9.80;;
11386;SDS011;5748;53.102;8.456;2024-03-08T08:03:21;11.53;;;10.33;;
11386;SDS011;5748;53.102;8.456;2024-03-08T08:05:48;10.97;;;9.87;;
11386;SDS011;5748;53.102;8.456;2024-03-08T08:08:15;11.30;;;10.20;;
11386;SDS011;5748;53.102;8.456;2024-03-08T08:10:42;10.60;;;9.50;;
11386;SDS011;5748;53.102;8.456;2024-03-08T08:13:09;11.87;;;10.63;;
11386;SDS011;5748;53.102;8.456;2024-03-08T08:15:37;10.27;;;9.27;;
11386;SDS011;5748;53.102;8.456;2024-03-08T08:18:05;10.70;;;9.70;;
11386;SDS011;5748;53.102;8.456;2024-03-08T08:20:36;10.63;;;9.53;;
11386;SDS011;5748;53.102;8.456;2024-03-08T08:23:03;11.33;;;10.17;;
11386;SDS011;5748;53.102;8.456;2024-03-08T08:25:31;10.20;;;9.17;;
11386;SDS011;5748;53.102;8.456;2024-03-08T08:27:59;11.10;;;9.97;;
11386;SDS011;5748;53.102;8.456;2024-03-08T08:30:29;10.23;;;9.17;;
11386;SDS011;5748;53.102;8.456;2024-03-08T08:32:58;11.20;;;10.00;;
11386;SDS011;5748;53.102;8.456;2024-03-08T08:35:25;11.37;;;10.10;;
11386;SDS011;5748;53.102;8.456;2024-03-08T08:37:55;10.20;;;9.20;;
11386;SDS011;5748;53.102;8.456;2024-03-08T08:40:23;10.07;;;9.07;;
11386;SDS011;5748;53.102;8.456;2024-03-08T08:42:50;9.67;;;8.73;;
11386;SDS011;5748;53.102;8.456;2024-03-08T08:45:18;10.70;;;9.60;;
11386;SDS011;5748;53.102;8.456;2024-03-08T08:47:45;11.13;;;10.10;;
11386;SDS011;5748;53.102;8.456;2024-03-08T08:50:14;9.97;;;8.97;;
11386;SDS011;5748;53.102;8.456;2024-03-08T08:52:48;10.03;;;9.03;;
11386;SDS011;5748;53.102;8.456;2024-03-08T08:55:17;10.00;;;9.00;;
11386;SDS011;5748;53.102;8.456;2024-03-08T08:57:46;9.87;;;8.87;;
11386;SDS011;5748;53.102;8.456;2024-03-08T09:00:14;7.70;;;7.00;;
11386;SDS011;5748;53.102;8.456;2024-03-08T09:02:41;9.83;;;8.93;;
11386;SDS011;5748;53.102;8.456;2024-03-08T09:05:09;9.97;;;9.07;;
11386;SDS011;5748;53.102;8.456;2024-03-08T09:07:36;9.60;;;8.60;;
11386;SDS011;5748;53.102;8.456;2024-03-08T09:10:03;10.40;;;9.30;;
11386;SDS011;5748;53.102;8.456;2024-03-08T09:12:33;10.80;;;9.70;;
11386;SDS011;5748;53.102;8.456;2024-03-08T09:15:00;9.33;;;8.53;;
11386;SDS011;5748;53.102;8.456;2024-03-08T09:17:27;10.23;;;9.23;;
11386;SDS011;5748;53.102;8.456;2024-03-08T09:19:55;9.33;;;8.43;;
11386;SDS011;5748;53.102;8.456;2024-03-08T09:22:22;8.50;;;7.70;;
11386;SDS011;5748;53.102;8.456;2024-03-08T09:24:50;9.17;;;8.27;;
11386;SDS011;5748;53.102;8.456;2024-03-08T09:27:17;9.03;;;8.13;;
11386;SDS011;5748;53.102;8.456;2024-03-08T09:29:46;8.60;;;7.77;;
11386;SDS011;5748;53.102;8.456;2024-03-08T09:32:13;8.20;;;7.40;;
11386;SDS011;5748;53.102;8.456;2024-03-08T09:34:40;8.53;;;7.73;;
11386;SDS011;5748;53.102;8.456;2024-03-08T09:37:07;9.17;;;8.37;;
11386;SDS011;5748;53.102;8.456;2024-03-08T09:39:34;9.10;;;8.20;;
11386;SDS011;5748;53.102;8.456;2024-03-08T09:42:02;7.57;;;6.87;;
11386;SDS011;5748;53.102;8.456;2024-03-08T09:44:30;8.80;;;7.90;;
11386;SDS011;5748;53.102;8.456;2024-03-08T09:46:59;8.00;;;7.30;;
11386;SDS011;5748;53.102;8.456;2024-03-08T09:49:27;8.50;;;7.70;;
11386;SDS011;5748;53.102;8.456;2024-03-08T09:51:55;8.70;;;7.90;;
11386;SDS011;5748;53.102;8.456;2024-03-08T09:54:22;8.10;;;7.40;;
11386;SDS011;5748;53.102;8.456;2024-03-08T09:56:51;8.53;;;7.73;;
11386;SDS011;5748;53.102;8.456;2024-03-08T09:59:18;8.70;;;7.90;;
11386;SDS011;5748;53.102;8.456;2024-03-08T10:02:14;8.30;;;7.53;;
11386;SDS011;5748;53.102;8.456;2024-03-08T10:04:42;9.35;;;8.45;;
11386;SDS011;5748;53.102;8.456;2024-03-08T10:07:12;8.43;;;7.63;;
11386;SDS011;5748;53.102;8.456;2024-03-08T10:09:39;10.13;;;8.20;;
11386;SDS011;5748;53.102;8.456;2024-03-08T10:12:12;8.63;;;7.72;;
11386;SDS011;5748;53.102;8.456;2024-03-08T10:14:40;9.77;;;8.77;;
11386;SDS011;5748;53.102;8.456;2024-03-08T10:17:08;9.80;;;8.82;;
11386;SDS011;5748;53.102;8.456;2024-03-08T10:19:37;8.85;;;8.05;;
11386;SDS011;5748;53.102;8.456;2024-03-08T10:22:04;8.88;;;7.97;;
11386;SDS011;5748;53.102;8.456;2024-03-08T10:24:31;12.38;;;8.90;;
11386;SDS011;5748;53.102;8.456;2024-03-08T10:27:00;9.27;;;8.38;;
11386;SDS011;5748;53.102;8.456;2024-03-08T10:29:29;9.57;;;8.68;;
11386;SDS011;5748;53.102;8.456;2024-03-08T10:31:57;8.50;;;7.70;;
11386;SDS011;5748;53.102;8.456;2024-03-08T10:34:25;8.40;;;7.60;;
11386;SDS011;5748;53.102;8.456;2024-03-08T10:36:53;7.97;;;7.28;;
11386;SDS011;5748;53.102;8.456;2024-03-08T10:39:30;8.35;;;7.57;;
11386;SDS011;5748;53.102;8.456;2024-03-08T10:42:02;9.23;;;8.40;;
11386;SDS011;5748;53.102;8.456;2024-03-08T10:44:40;8.48;;;7.68;;
11386;SDS011;5748;53.102;8.456;2024-03-08T10:47:18;8.90;;;8.00;;
11386;SDS011;5748;53.102;8.456;2024-03-08T10:49:57;8.25;;;7.45;;
11386;SDS011;5748;53.102;8.456;2024-03-08T10:52:36;8.40;;;7.60;;
11386;SDS011;5748;53.102;8.456;2024-03-08T10:55:03;7.97;;;7.28;;
11386;SDS011;5748;53.102;8.456;2024-03-08T10:57:37;7.72;;;7.03;;
11386;SDS011;5748;53.102;8.456;2024-03-08T11:00:05;7.20;;;6.60;;
11386;SDS011;5748;53.102;8.456;2024-03-08T11:02:35;8.35;;;7.65;;
11386;SDS011;5748;53.102;8.456;2024-03-08T11:05:03;8.00;;;7.30;;
11386;SDS011;5748;53.102;8.456;2024-03-08T11:07:33;6.43;;;5.82;;
11386;SDS011;5748;53.102;8.456;2024-03-08T11:10:02;7.97;;;7.28;;
11386;SDS011;5748;53.102;8.456;2024-03-08T11:12:35;7.93;;;7.22;;
11386;SDS011;5748;53.102;8.456;2024-03-08T11:15:09;8.27;;;7.47;;
11386;SDS011;5748;53.102;8.456;2024-03-08T11:17:44;7.72;;;6.97;;
11386;SDS011;5748;53.102;8.456;2024-03-08T11:20:14;8.50;;;7.70;;
11386;SDS011;5748;53.102;8.456;2024-03-08T11:22:47;7.50;;;6.80;;
11386;SDS011;5748;53.102;8.456;2024-03-08T11:28:12;7.22;;;6.63;;
11386;SDS011;5748;53.102;8.456;2024-03-08T11:30:43;6.22;;;5.68;;
11386;SDS011;5748;53.102;8.456;2024-03-08T11:33:13;8.30;;;7.50;;
11386;SDS011;5748;53.102;8.456;2024-03-08T11:35:41;7.55;;;6.93;;
11386;SDS011;5748;53.102;8.456;2024-03-08T11:38:12;7.25;;;6.65;;
11386;SDS011;5748;53.102;8.456;2024-03-08T11:40:42;6.55;;;6.03;;
11386;SDS011;5748;53.102;8.456;2024-03-08T11:43:09;6.93;;;6.32;;
11386;SDS011;5748;53.102;8.456;2024-03-08T11:45:36;7.45;;;6.75;;
11386;SDS011;5748;53.102;8.456;2024-03-08T11:48:03;6.78;;;6.18;;
11386;SDS011;5748;53.102;8.456;2024-03-08T11:50:31;8.32;;;7.55;;
11386;SDS011;5748;53.102;8.456;2024-03-08T11:53:02;7.47;;;6.78;;
11386;SDS011;5748;53.102;8.456;2024-03-08T11:55:31;7.90;;;7.20;;
11386;SDS011;5748;53.102;8.456;2024-03-08T11:58:01;7.88;;;7.18;;
11386;SDS011;5748;53.102;8.456;2024-03-08T12:00:29;7.88;;;7.18;;
11386;SDS011;5748;53.102;8.456;2024-03-08T12:03:03;8.35;;;7.55;;
11386;SDS011;5748;53.102;8.456;2024-03-08T12:05:32;7.45;;;6.80;;
11386;SDS011;5748;53.102;8.456;2024-03-08T12:08:00;8.32;;;7.50;;
11386;SDS011;5748;53.102;8.456;2024-03-08T12:10:28;7.20;;;6.53;;
11386;SDS011;5748;53.102;8.456;2024-03-08T12:12:57;7.13;;;6.53;;
11386;SDS011;5748;53.102;8.456;2024-03-08T12:15:25;6.57;;;5.97;;
11386;SDS011;5748;53.102;8.456;2024-03-08T12:17:54;5.93;;;5.43;;
11386;SDS011;5748;53.102;8.456;2024-03-08T12:20:23;6.28;;;5.68;;
11386;SDS011;5748;53.102;8.456;2024-03-08T12:22:51;6.13;;;5.63;;
11386;SDS011;5748;53.102;8.456;2024-03-08T12:25:21;6.90;;;6.30;;
11386;SDS011;5748;53.102;8.456;2024-03-08T12:27:48;5.47;;;5.00;;
11386;SDS011;5748;53.102;8.456;2024-03-08T12:30:20;5.72;;;5.22;;
11386;SDS011;5748;53.102;8.456;2024-03-08T12:32:48;5.72;;;5.22;;
11386;SDS011;5748;53.102;8.456;2024-03-08T12:35:19;6.20;;;5.60;;
11386;SDS011;5748;53.102;8.456;2024-03-08T12:37:48;6.70;;;6.10;;
11386;SDS011;5748;53.102;8.456;2024-03-08T12:40:18;5.93;;;5.43;;
11386;SDS011;5748;53.102;8.456;2024-03-08T12:42:46;6.88;;;6.28;;
11386;SDS011;5748;53.102;8.456;2024-03-08T12:45:14;6.68;;;6.07;;
11386;SDS011;5748;53.102;8.456;2024-03-08T12:47:42;6.05;;;5.55;;
11386;SDS011;5748;53.102;8.456;2024-03-08T12:50:10;6.70;;;6.10;;
11386;SDS011;5748;53.102;8.456;2024-03-08T12:52:37;5.90;;;5.35;;
11386;SDS011;5748;53.102;8.456;2024-03-08T12:55:04;6.47;;;5.88;;
11386;SDS011;5748;53.102;8.456;2024-03-08T12:57:33;5.70;;;5.20;;
11386;SDS011;5748;53.102;8.456;2024-03-08T13:00:01;6.05;;;5.55;;
11386;SDS011;5748;53.102;8.456;2024-03-08T13:02:29;7.00;;;6.40;;
11386;SDS011;5748;53.102;8.456;2024-03-08T13:04:58;5.95;;;5.45;;
11386;SDS011;5748;53.102;8.456;2024-03-08T13:07:26;6.32;;;5.80;;
11386;SDS011;5748;53.102;8.456;2024-03-08T13:09:53;5.75;;;5.15;;
11386;SDS011;5748;53.102;8.456;2024-03-08T13:12:22;6.43;;;5.82;;
11386;SDS011;5748;53.102;8.456;2024-03-08T13:14:49;6.40;;;5.80;;
11386;SDS011;5748;53.102;8.456;2024-03-08T13:17:16;6.35;;;5.75;;
11386;SDS011;5748;53.102;8.456;2024-03-08T13:19:43;6.40;;;5.80;;
11386;SDS011;5748;53.102;8.456;2024-03-08T13:22:12;6.90;;;6.20;;
11386;SDS011;5748;53.102;8.456;2024-03-08T13:24:41;6.70;;;6.10;;
11386;SDS011;5748;53.102;8.456;2024-03-08T13:27:10;6.93;;;6.32;;
11386;SDS011;5748;53.102;8.456;2024-03-08T13:29:44;6.38;;;5.78;;
11386;SDS011;5748;53.102;8.456;2024-03-08T13:32:15;6.97;;;6.28;;
11386;SDS011;5748;53.102;8.456;2024-03-08T13:34:42;7.80;;;7.10;;
11386;SDS011;5748;53.102;8.456;2024-03-08T13:37:11;7.10;;;6.40;;
11386;SDS011;5748;53.102;8.456;2024-03-08T13:39:41;7.53;;;6.82;;
11386;SDS011;5748;53.102;8.456;2024-03-08T13:42:10;8.20;;;7.40;;
11386;SDS011;5748;53.102;8.456;2024-03-08T13:44:43;7.67;;;6.97;;
11386;SDS011;5748;53.102;8.456;2024-03-08T13:47:10;8.60;;;7.70;;
11386;SDS011;5748;53.102;8.456;2024-03-08T13:49:38;7.47;;;6.77;;
11386;SDS011;5748;53.102;8.456;2024-03-08T13:52:05;7.00;;;6.40;;
11386;SDS011;5748;53.102;8.456;2024-03-08T13:54:35;7.37;;;6.67;;
11386;SDS011;5748;53.102;8.456;2024-03-08T13:57:03;7.63;;;6.93;;
11386;SDS011;5748;53.102;8.456;2024-03-08T13:59:32;7.60;;;6.93;;
11386;SDS011;5748;53.102;8.456;2024-03-08T14:02:00;6.60;;;6.00;;
11386;SDS011;5748;53.102;8.456;2024-03-08T14:04:27;7.43;;;6.73;;
11386;SDS011;5748;53.102;8.456;2024-03-08T14:06:55;8.20;;;7.40;;
11386;SDS011;5748;53.102;8.456;2024-03-08T14:09:28;8.33;;;7.53;;
11386;SDS011;5748;53.102;8.456;2024-03-08T14:11:57;7.73;;;7.03;;
11386;SDS011;5748;53.102;8.456;2024-03-08T14:14:24;8.13;;;7.33;;
11386;SDS011;5748;53.102;8.456;2024-03-08T14:16:51;8.33;;;7.53;;
11386;SDS011;5748;53.102;8.456;2024-03-08T14:19:20;8.90;;;8.07;;
11386;SDS011;5748;53.102;8.456;2024-03-08T14:21:47;9.47;;;8.57;;
11386;SDS011;5748;53.102;8.456;2024-03-08T14:24:14;9.30;;;8.40;;
11386;SDS011;5748;53.102;8.456;2024-03-08T14:26:42;8.90;;;8.10;;
11386;SDS011;5748;53.102;8.456;2024-03-08T14:29:10;9.53;;;8.50;;
11386;SDS011;5748;53.102;8.456;2024-03-08T14:31:37;7.90;;;7.13;;
11386;SDS011;5748;53.102;8.456;2024-03-08T14:34:05;8.00;;;7.30;;
11386;SDS011;5748;53.102;8.456;2024-03-08T14:36:33;8.20;;;7.40;;
11386;SDS011;5748;53.102;8.456;2024-03-08T14:39:00;8.77;;;7.87;;
11386;SDS011;5748;53.102;8.456;2024-03-08T14:41:27;8.33;;;7.53;;
11386;SDS011;5748;53.102;8.456;2024-03-08T14:43:55;8.60;;;7.80;;
11386;SDS011;5748;53.102;8.456;2024-03-08T14:46:23;7.77;;;7.07;;
11386;SDS011;5748;53.102;8.456;2024-03-08T14:48:51;8.43;;;7.63;;
11386;SDS011;5748;53.102;8.456;2024-03-08T14:51:19;9.17;;;8.27;;
11386;SDS011;5748;53.102;8.456;2024-03-08T14:53:47;8.67;;;7.87;;
11386;SDS011;5748;53.102;8.456;2024-03-08T14:56:14;8.30;;;7.50;;
11386;SDS011;5748;53.102;8.456;2024-03-08T14:58:42;7.77;;;7.07;;
11386;SDS011;5748;53.102;8.456;2024-03-08T15:01:10;9.13;;;8.27;;
11386;SDS011;5748;53.102;8.456;2024-03-08T15:03:40;7.97;;;7.17;;
11386;SDS011;5748;53.102;8.456;2024-03-08T15:06:07;8.57;;;7.77;;